RA73750 UMOO-HLLB
Flight info
| Callsign | RA73750 |
|---|---|
| Flight time | N/A |
| Altitude | 45000 |
| Route | DIFTO T346 ASKIL KR806 POKKO KR700 BAMDO DCT RAMUT DCT LAMKO P163 LADIM DCT OBABI G481 LARIN G487 ODIRA/N0499F450 DCT SIN DCT BAG P29 AYT A16 DERYA DCT VAXOS DCT METRU DCT LAB |
| Aircraft | C750/M-SBDE3FGHRWXY/H |
Departure
| Time | 2026-05-05 14:30 |
|---|---|
| Airport | Mogilev Airport (UMOO) |
Arrival
| Time | N/A |
|---|---|
| Airport | Benina International Airport (HLLB) |
| Time | Latitude | Longitude | Altitude | Speed | Heading |
|---|---|---|---|---|---|
| 2026-05-05 14:20 | 53.95995 | 30.09515 | 610 ft | 0 kts | 226° |
| 2026-05-05 14:23 | 53.95983 | 30.09494 | 610 ft | 3 kts | 226° |
| 2026-05-05 14:23 | 53.95958 | 30.09485 | 610 ft | 4 kts | 146° |
| 2026-05-05 14:24 | 53.95933 | 30.09530 | 610 ft | 6 kts | 134° |
| 2026-05-05 14:24 | 53.95898 | 30.09581 | 610 ft | 7 kts | 147° |
| 2026-05-05 14:24 | 53.95844 | 30.09591 | 614 ft | 8 kts | 183° |
| 2026-05-05 14:24 | 53.95779 | 30.09585 | 621 ft | 10 kts | 183° |
| 2026-05-05 14:25 | 53.95715 | 30.09543 | 610 ft | 10 kts | 227° |
| 2026-05-05 14:25 | 53.95672 | 30.09464 | 614 ft | 8 kts | 227° |
| 2026-05-05 14:25 | 53.95638 | 30.09403 | 611 ft | 6 kts | 227° |
| 2026-05-05 14:25 | 53.95610 | 30.09358 | 612 ft | 7 kts | 206° |
| 2026-05-05 14:26 | 53.95551 | 30.09417 | 614 ft | 14 kts | 135° |
| 2026-05-05 14:26 | 53.95481 | 30.09533 | 612 ft | 14 kts | 136° |
| 2026-05-05 14:26 | 53.95403 | 30.09655 | 610 ft | 17 kts | 137° |
| 2026-05-05 14:26 | 53.95314 | 30.09795 | 610 ft | 18 kts | 135° |
| 2026-05-05 14:27 | 53.95221 | 30.09949 | 612 ft | 19 kts | 136° |
| 2026-05-05 14:27 | 53.95123 | 30.10103 | 611 ft | 19 kts | 137° |
| 2026-05-05 14:27 | 53.95026 | 30.10262 | 612 ft | 20 kts | 135° |
| 2026-05-05 14:27 | 53.94924 | 30.10429 | 617 ft | 21 kts | 136° |
| 2026-05-05 14:28 | 53.94817 | 30.10598 | 610 ft | 18 kts | 136° |
| 2026-05-05 14:28 | 53.94766 | 30.10754 | 612 ft | 14 kts | 123° |
| 2026-05-05 14:28 | 53.94734 | 30.10715 | 610 ft | 9 kts | 320° |
| 2026-05-05 14:28 | 53.94788 | 30.10639 | 615 ft | 11 kts | 317° |
| 2026-05-05 14:29 | 53.94827 | 30.10573 | 611 ft | 16 kts | 315° |
| 2026-05-05 14:29 | 53.95126 | 30.10086 | 617 ft | 97 kts | 316° |
| 2026-05-05 14:29 | 53.95534 | 30.09431 | 613 ft | 141 kts | 316° |
| 2026-05-05 14:29 | 53.96312 | 30.08193 | 907 ft | 159 kts | 315° |
| 2026-05-05 14:30 | 53.97158 | 30.06849 | 1472 ft | 171 kts | 315° |
| 2026-05-05 14:30 | 53.98286 | 30.06129 | 2016 ft | 186 kts | 356° |
| 2026-05-05 14:30 | 53.99541 | 30.06970 | 2536 ft | 211 kts | 35° |
| 2026-05-05 14:30 | 54.00321 | 30.09154 | 3149 ft | 229 kts | 76° |
| 2026-05-05 14:31 | 54.00409 | 30.11915 | 3841 ft | 239 kts | 87° |
| 2026-05-05 14:31 | 54.00595 | 30.14843 | 4497 ft | 258 kts | 82° |
| 2026-05-05 14:31 | 54.00847 | 30.17934 | 5228 ft | 268 kts | 83° |
| 2026-05-05 14:31 | 54.00956 | 30.21149 | 5828 ft | 282 kts | 87° |
| 2026-05-05 14:32 | 54.01578 | 30.24389 | 6349 ft | 293 kts | 60° |
| 2026-05-05 14:32 | 54.02689 | 30.27276 | 7264 ft | 292 kts | 54° |
| 2026-05-05 14:32 | 54.03913 | 30.30091 | 8070 ft | 297 kts | 53° |
| 2026-05-05 14:32 | 54.05123 | 30.32927 | 8926 ft | 301 kts | 54° |
| 2026-05-05 14:33 | 54.06336 | 30.35901 | 9707 ft | 307 kts | 55° |
| 2026-05-05 14:33 | 54.07570 | 30.38924 | 10251 ft | 318 kts | 54° |
| 2026-05-05 14:33 | 54.08887 | 30.42093 | 10306 ft | 345 kts | 54° |
| 2026-05-05 14:33 | 54.10258 | 30.45391 | 10342 ft | 368 kts | 54° |
| 2026-05-05 14:34 | 54.11742 | 30.48998 | 10938 ft | 371 kts | 54° |
| 2026-05-05 14:34 | 54.13232 | 30.52633 | 11543 ft | 375 kts | 54° |
| 2026-05-05 14:34 | 54.14750 | 30.56217 | 12083 ft | 379 kts | 51° |
| 2026-05-05 14:34 | 54.16784 | 30.59070 | 12533 ft | 380 kts | 27° |
| 2026-05-05 14:35 | 54.19262 | 30.60558 | 13198 ft | 375 kts | 7° |
| 2026-05-05 14:35 | 54.21852 | 30.60549 | 13767 ft | 370 kts | 349° |
| 2026-05-05 14:35 | 54.24377 | 30.59888 | 14341 ft | 371 kts | 347° |
| 2026-05-05 14:35 | 54.26996 | 30.59695 | 14731 ft | 384 kts | 3° |
| 2026-05-05 14:36 | 54.29603 | 30.60915 | 15312 ft | 391 kts | 20° |
| 2026-05-05 14:36 | 54.31894 | 30.63397 | 15839 ft | 399 kts | 38° |
| 2026-05-05 14:36 | 54.33720 | 30.67009 | 16401 ft | 403 kts | 53° |
| 2026-05-05 14:36 | 54.35329 | 30.70988 | 16994 ft | 406 kts | 54° |
| 2026-05-05 14:37 | 54.36922 | 30.75011 | 17568 ft | 409 kts | 54° |
| 2026-05-05 14:37 | 54.38535 | 30.79024 | 18134 ft | 413 kts | 54° |
| 2026-05-05 14:37 | 54.40186 | 30.83086 | 18669 ft | 416 kts | 54° |
| 2026-05-05 14:37 | 54.41841 | 30.87197 | 19227 ft | 419 kts | 54° |
| 2026-05-05 14:38 | 54.43488 | 30.91326 | 19775 ft | 422 kts | 54° |
| 2026-05-05 14:38 | 54.45160 | 30.95510 | 20333 ft | 425 kts | 54° |
| 2026-05-05 14:38 | 54.46846 | 30.99716 | 20901 ft | 428 kts | 54° |
| 2026-05-05 14:38 | 54.48522 | 31.03910 | 21436 ft | 431 kts | 54° |
| 2026-05-05 14:39 | 54.50226 | 31.08196 | 21974 ft | 435 kts | 54° |
| 2026-05-05 14:39 | 54.51956 | 31.12492 | 22514 ft | 438 kts | 53° |
| 2026-05-05 14:39 | 54.53746 | 31.16765 | 23051 ft | 441 kts | 52° |
| 2026-05-05 14:39 | 54.55554 | 31.21084 | 23550 ft | 444 kts | 53° |
| 2026-05-05 14:40 | 54.57316 | 31.25409 | 23997 ft | 447 kts | 53° |
| 2026-05-05 14:40 | 54.59109 | 31.29839 | 24448 ft | 450 kts | 53° |
| 2026-05-05 14:40 | 54.60924 | 31.34259 | 24895 ft | 452 kts | 53° |
| 2026-05-05 14:40 | 54.62751 | 31.38699 | 25334 ft | 455 kts | 53° |
| 2026-05-05 14:41 | 54.64585 | 31.43202 | 25784 ft | 458 kts | 53° |
| 2026-05-05 14:41 | 54.66329 | 31.47722 | 26161 ft | 463 kts | 58° |
| 2026-05-05 14:41 | 54.67684 | 31.52828 | 26585 ft | 468 kts | 69° |
| 2026-05-05 14:41 | 54.68542 | 31.58290 | 27054 ft | 471 kts | 79° |
| 2026-05-05 14:42 | 54.68859 | 31.63892 | 27475 ft | 475 kts | 88° |
| 2026-05-05 14:42 | 54.68927 | 31.69610 | 27926 ft | 477 kts | 89° |
| 2026-05-05 14:42 | 54.69004 | 31.75375 | 28351 ft | 480 kts | 88° |
| 2026-05-05 14:42 | 54.69091 | 31.81208 | 28787 ft | 484 kts | 88° |
| 2026-05-05 14:43 | 54.69166 | 31.87040 | 29214 ft | 487 kts | 88° |
| 2026-05-05 14:43 | 54.69230 | 31.92838 | 29625 ft | 490 kts | 88° |
| 2026-05-05 14:43 | 54.69297 | 31.98761 | 30022 ft | 493 kts | 88° |
| 2026-05-05 14:43 | 54.69368 | 32.04726 | 30386 ft | 495 kts | 88° |
| 2026-05-05 14:44 | 54.69430 | 32.10318 | 30732 ft | 498 kts | 88° |
| 2026-05-05 14:44 | 54.69490 | 32.16349 | 31233 ft | 496 kts | 88° |
| 2026-05-05 14:44 | 54.69543 | 32.22082 | 31827 ft | 493 kts | 88° |
| 2026-05-05 14:44 | 54.69600 | 32.28028 | 32356 ft | 492 kts | 88° |
| 2026-05-05 14:45 | 54.69652 | 32.33778 | 32889 ft | 491 kts | 89° |
| 2026-05-05 14:45 | 54.69699 | 32.39514 | 33438 ft | 489 kts | 89° |
| 2026-05-05 14:45 | 54.69742 | 32.45225 | 33950 ft | 488 kts | 89° |
| 2026-05-05 14:45 | 54.69784 | 32.50826 | 34378 ft | 487 kts | 89° |
| 2026-05-05 14:46 | 54.69824 | 32.56499 | 34792 ft | 487 kts | 89° |
| 2026-05-05 14:46 | 54.69862 | 32.62376 | 35211 ft | 487 kts | 89° |
| 2026-05-05 14:46 | 54.69895 | 32.67941 | 35628 ft | 486 kts | 89° |
| 2026-05-05 14:46 | 54.69927 | 32.73708 | 36052 ft | 486 kts | 90° |
| 2026-05-05 14:47 | 54.69956 | 32.79487 | 36467 ft | 486 kts | 90° |
| 2026-05-05 14:47 | 54.69982 | 32.85168 | 36877 ft | 486 kts | 90° |
| 2026-05-05 14:47 | 54.69949 | 32.90874 | 37243 ft | 486 kts | 94° |
| 2026-05-05 14:47 | 54.69565 | 32.96511 | 37632 ft | 485 kts | 100° |
| 2026-05-05 14:48 | 54.68991 | 33.02176 | 38078 ft | 484 kts | 102° |
| 2026-05-05 14:48 | 54.68465 | 33.07754 | 38472 ft | 485 kts | 99° |
| 2026-05-05 14:48 | 54.68067 | 33.13270 | 38787 ft | 485 kts | 98° |
| 2026-05-05 14:48 | 54.67660 | 33.18887 | 39120 ft | 484 kts | 99° |
| 2026-05-05 14:49 | 54.67140 | 33.24644 | 39481 ft | 483 kts | 101° |
| 2026-05-05 14:49 | 54.66669 | 33.30201 | 39793 ft | 483 kts | 96° |
| 2026-05-05 14:49 | 54.66594 | 33.35841 | 40107 ft | 484 kts | 89° |
| 2026-05-05 14:49 | 54.66774 | 33.41465 | 40490 ft | 483 kts | 86° |
| 2026-05-05 14:50 | 54.66968 | 33.47184 | 40841 ft | 482 kts | 89° |
| 2026-05-05 14:50 | 54.66983 | 33.52797 | 41177 ft | 481 kts | 92° |
| 2026-05-05 14:50 | 54.66940 | 33.58394 | 41519 ft | 481 kts | 91° |
| 2026-05-05 14:50 | 54.67008 | 33.64004 | 41853 ft | 481 kts | 89° |
| 2026-05-05 14:51 | 54.67145 | 33.69798 | 42207 ft | 480 kts | 89° |
| 2026-05-05 14:51 | 54.67203 | 33.75216 | 42534 ft | 479 kts | 91° |
| 2026-05-05 14:51 | 54.67197 | 33.80834 | 42869 ft | 479 kts | 91° |
| 2026-05-05 14:51 | 54.67224 | 33.86506 | 43206 ft | 478 kts | 90° |
| 2026-05-05 14:52 | 54.67295 | 33.92163 | 43519 ft | 478 kts | 90° |
| 2026-05-05 14:52 | 54.67343 | 33.97700 | 43840 ft | 477 kts | 91° |
| 2026-05-05 14:52 | 54.67353 | 34.03331 | 44153 ft | 477 kts | 91° |
| 2026-05-05 14:52 | 54.67366 | 34.08868 | 44455 ft | 476 kts | 91° |
| 2026-05-05 14:53 | 54.67403 | 34.14509 | 44715 ft | 476 kts | 90° |
| 2026-05-05 14:53 | 54.67440 | 34.20133 | 44854 ft | 479 kts | 91° |
| 2026-05-05 14:53 | 54.67461 | 34.31429 | 44824 ft | 490 kts | 91° |
| 2026-05-05 14:54 | 54.67501 | 34.43053 | 44837 ft | 501 kts | 91° |
| 2026-05-05 14:54 | 54.67513 | 34.54940 | 44847 ft | 511 kts | 91° |
| 2026-05-05 14:55 | 54.67523 | 34.67044 | 44831 ft | 519 kts | 91° |
| 2026-05-05 14:55 | 54.67516 | 34.79425 | 44840 ft | 524 kts | 91° |
| 2026-05-05 14:56 | 54.67498 | 34.91657 | 44837 ft | 526 kts | 91° |
| 2026-05-05 14:56 | 54.67422 | 35.03898 | 44831 ft | 524 kts | 92° |
| 2026-05-05 14:57 | 54.67337 | 35.16260 | 44829 ft | 519 kts | 91° |
| 2026-05-05 14:57 | 54.67247 | 35.28353 | 44821 ft | 515 kts | 92° |
| 2026-05-05 14:58 | 54.67136 | 35.40306 | 44821 ft | 513 kts | 92° |
| 2026-05-05 14:58 | 54.67024 | 35.52430 | 44824 ft | 511 kts | 92° |
| 2026-05-05 14:59 | 54.66214 | 35.64205 | 44824 ft | 507 kts | 107° |
| 2026-05-05 14:59 | 54.63863 | 35.75568 | 44845 ft | 507 kts | 114° |
| 2026-05-05 15:00 | 54.61832 | 35.84802 | 44830 ft | 510 kts | 109° |
| 2026-05-05 15:00 | 54.59398 | 35.98077 | 44840 ft | 513 kts | 111° |
| 2026-05-05 15:01 | 54.56988 | 36.09326 | 44837 ft | 515 kts | 110° |
| 2026-05-05 15:01 | 54.54780 | 36.20901 | 44836 ft | 515 kts | 111° |